createdAt,value
2022-10-22T00:02:27.795Z,100409.69
2022-10-22T00:04:54.579Z,100410.25
2022-10-22T00:07:21.246Z,100408.03
2022-10-22T00:09:47.645Z,100405.03
2022-10-22T00:12:15.384Z,100407.56
2022-10-22T00:14:42.735Z,100408.66
2022-10-22T00:17:11.626Z,100408.38
2022-10-22T00:19:39.153Z,100405.88
2022-10-22T00:22:06.087Z,100405.03
2022-10-22T00:24:36.790Z,100394.78
2022-10-22T00:27:03.968Z,100368.13
2022-10-22T00:29:30.457Z,100367.91
2022-10-22T00:31:57.050Z,100356.28
2022-10-22T00:34:23.937Z,100374.94
2022-10-22T00:36:51.211Z,100348.38
2022-10-22T00:39:20.409Z,100351.72
2022-10-22T00:41:48.687Z,100358.94
2022-10-22T00:44:52.537Z,100361.44
2022-10-22T00:47:20.969Z,100352.31
2022-10-22T00:49:48.034Z,100349.53
2022-10-22T00:52:14.584Z,100357.56
2022-10-22T00:54:42.483Z,100360.63
2022-10-22T00:57:09.693Z,100349.78
2022-10-22T00:59:37.673Z,100349.19
2022-10-22T01:02:04.236Z,100354.16
2022-10-22T01:04:30.647Z,100356.59
2022-10-22T01:06:57.147Z,100361.31
2022-10-22T01:09:46.761Z,100365.44
2022-10-22T01:12:31.892Z,100379.84
2022-10-22T01:15:11.579Z,100385.88
2022-10-22T01:17:56.019Z,100384.22
2022-10-22T01:20:50.449Z,100379.50
2022-10-22T01:23:49.342Z,100382.00
2022-10-22T01:26:21.683Z,100367.91
2022-10-22T01:29:07.286Z,100367.38
2022-10-22T01:31:40.113Z,100362.16
2022-10-22T01:34:08.242Z,100368.28
2022-10-22T01:36:37.518Z,100370.78
2022-10-22T01:39:05.549Z,100364.16
2022-10-22T01:41:32.121Z,100358.94
2022-10-22T01:43:58.525Z,100364.50
2022-10-22T01:46:28.023Z,100356.72
2022-10-22T01:49:03.245Z,100361.44
2022-10-22T01:51:38.832Z,100366.19
2022-10-22T01:54:33.861Z,100357.25
2022-10-22T01:57:28.523Z,100360.56
2022-10-22T02:00:06.262Z,100360.78
2022-10-22T02:02:35.802Z,100362.47
2022-10-22T02:05:16.940Z,100365.50
2022-10-22T02:07:58.187Z,100362.22
2022-10-22T02:10:25.109Z,100367.78
2022-10-22T02:12:55.872Z,100362.81
2022-10-22T02:15:25.638Z,100369.19
2022-10-22T02:17:55.911Z,100368.34
2022-10-22T02:20:27.750Z,100368.34
2022-10-22T02:22:55.476Z,100378.03
2022-10-22T02:25:23.632Z,100371.66
2022-10-22T02:27:58.576Z,100362.72
2022-10-22T02:30:25.002Z,100371.31
2022-10-22T02:33:02.798Z,100385.44
2022-10-22T02:35:30.259Z,100385.38
2022-10-22T02:37:58.944Z,100383.94
2022-10-22T02:40:26.206Z,100384.44
2022-10-22T02:42:53.199Z,100390.84
2022-10-22T02:45:20.396Z,100386.38
2022-10-22T02:47:47.339Z,100384.72
2022-10-22T02:50:13.792Z,100376.41
2022-10-22T02:52:40.428Z,100386.38
2022-10-22T02:55:07.803Z,100376.97
2022-10-22T02:57:34.222Z,100376.97
2022-10-22T03:00:00.643Z,100376.13
2022-10-22T03:02:27.077Z,100383.59
2022-10-22T03:04:53.437Z,100391.09
2022-10-22T03:07:19.963Z,100396.28
2022-10-22T03:09:46.650Z,100392.13
2022-10-22T03:12:13.051Z,100409.25
2022-10-22T03:14:39.451Z,100402.31
2022-10-22T03:17:05.881Z,100400.84
2022-10-22T03:19:32.339Z,100401.13
2022-10-22T03:22:10.117Z,100403.81
2022-10-22T03:24:39.776Z,100399.88
2022-10-22T03:27:06.290Z,100400.63
2022-10-22T03:29:36.050Z,100397.28
2022-10-22T03:32:02.613Z,100406.34
2022-10-22T03:34:29.016Z,100400.78
2022-10-22T03:36:58.143Z,100408.25
2022-10-22T03:39:24.830Z,100415.16
2022-10-22T03:41:52.546Z,100409.00
2022-10-22T03:44:20.731Z,100410.63
2022-10-22T03:46:47.157Z,100411.97
2022-10-22T03:49:13.511Z,100423.56
2022-10-22T03:51:39.953Z,100417.66
2022-10-22T03:54:06.473Z,100423.72
2022-10-22T03:56:33.079Z,100431.41
2022-10-22T03:59:00.989Z,100439.41
2022-10-22T04:01:29.900Z,100432.44
2022-10-22T04:03:56.797Z,100433.19
2022-10-22T04:06:23.856Z,100441.13
2022-10-22T04:08:50.264Z,100439.94
2022-10-22T04:11:17.165Z,100445.97
2022-10-22T04:13:44.278Z,100450.66
2022-10-22T04:16:20.856Z,100455.84
2022-10-22T04:18:49.195Z,100458.06
2022-10-22T04:21:17.740Z,100461.06
2022-10-22T04:23:46.205Z,100464.91
2022-10-22T04:26:12.868Z,100467.09
2022-10-22T04:28:39.580Z,100476.75
2022-10-22T04:31:14.951Z,100476.13
2022-10-22T04:33:41.866Z,100481.66
2022-10-22T04:36:14.268Z,100480.00
2022-10-22T04:38:42.304Z,100476.06
2022-10-22T04:41:30.970Z,100482.06
2022-10-22T04:43:58.352Z,100478.94
2022-10-22T04:46:26.572Z,100478.13
2022-10-22T04:48:53.450Z,100476.44
2022-10-22T04:51:22.157Z,100476.94
2022-10-22T04:53:48.737Z,100474.63
2022-10-22T04:56:25.048Z,100474.53
2022-10-22T04:58:54.865Z,100474.78
2022-10-22T05:01:24.031Z,100481.38
2022-10-22T05:03:52.432Z,100478.38
2022-10-22T05:06:20.979Z,100493.31
2022-10-22T05:08:48.829Z,100493.31
2022-10-22T05:11:20.565Z,100496.56
2022-10-22T05:13:47.586Z,100500.66
2022-10-22T05:16:14.506Z,100495.38
2022-10-22T05:18:43.054Z,100507.53
2022-10-22T05:21:18.696Z,100505.25
2022-10-22T05:23:46.853Z,100507.41
2022-10-22T05:26:15.147Z,100505.72
2022-10-22T05:28:41.805Z,100509.56
2022-10-22T05:31:10.581Z,100501.53
2022-10-22T05:33:37.092Z,100505.16
2022-10-22T05:36:05.687Z,100497.69
2022-10-22T05:38:33.579Z,100502.38
2022-10-22T05:41:11.413Z,100510.69
2022-10-22T05:43:38.092Z,100517.06
2022-10-22T05:46:07.349Z,100511.25
2022-10-22T05:48:34.075Z,100510.19
2022-10-22T05:51:05.494Z,100507.16
2022-10-22T05:53:32.988Z,100517.41
2022-10-22T05:56:03.720Z,100531.81
2022-10-22T05:58:30.332Z,100531.81
2022-10-22T06:01:27.802Z,100543.13
2022-10-22T06:03:56.876Z,100546.50
2022-10-22T06:06:30.886Z,100548.44
2022-10-22T06:09:20.248Z,100560.56
2022-10-22T06:11:48.250Z,100562.50
2022-10-22T06:14:14.840Z,100569.13
2022-10-22T06:16:41.309Z,100568.03
2022-10-22T06:19:08.078Z,100586.69
2022-10-22T06:21:34.430Z,100575.59
2022-10-22T06:24:01.518Z,100593.06
2022-10-22T06:26:28.289Z,100583.06
2022-10-22T06:28:56.156Z,100596.09
2022-10-22T06:31:23.418Z,100601.63
2022-10-22T06:33:49.834Z,100608.22
2022-10-22T06:36:19.335Z,100606.31
2022-10-22T06:38:45.901Z,100616.88
2022-10-22T06:41:14.860Z,100618.94
2022-10-22T06:43:45.231Z,100620.16
2022-10-22T06:46:14.903Z,100625.78
2022-10-22T06:48:49.691Z,100616.53
2022-10-22T06:51:16.090Z,100627.09
2022-10-22T06:53:42.605Z,100627.69
2022-10-22T06:56:11.862Z,100624.44
2022-10-22T06:58:38.941Z,100622.28
2022-10-22T07:01:11.504Z,100629.00
2022-10-22T07:03:39.093Z,100625.13
2022-10-22T07:06:10.205Z,100625.50
2022-10-22T07:08:38.231Z,100636.09
2022-10-22T07:11:10.193Z,100632.84
2022-10-22T07:13:36.925Z,100639.81
2022-10-22T07:16:04.593Z,100650.41
2022-10-22T07:18:31.895Z,100647.13
2022-10-22T07:20:58.397Z,100656.69
2022-10-22T07:23:25.037Z,100663.69
2022-10-22T07:25:51.532Z,100657.38
2022-10-22T07:28:18.145Z,100665.81
2022-10-22T07:30:44.625Z,100668.69
2022-10-22T07:33:11.495Z,100670.47
2022-10-22T07:35:39.887Z,100674.78
2022-10-22T07:38:07.735Z,100680.81
2022-10-22T07:40:35.092Z,100689.81
2022-10-22T07:43:02.050Z,100692.19
2022-10-22T07:45:28.676Z,100705.66
2022-10-22T07:47:55.207Z,100703.34
2022-10-22T07:50:21.800Z,100701.00
2022-10-22T07:52:48.353Z,100706.75
2022-10-22T07:55:14.834Z,100712.47
2022-10-22T07:57:41.325Z,100714.97
2022-10-22T08:00:09.032Z,100710.19
2022-10-22T08:02:35.542Z,100709.03
2022-10-22T08:05:01.965Z,100708.09
2022-10-22T08:07:28.478Z,100710.56
2022-10-22T08:09:55.004Z,100719.88
2022-10-22T08:12:21.597Z,100721.13
2022-10-22T08:14:48.003Z,100715.38
2022-10-22T08:17:15.685Z,100721.97
2022-10-22T08:19:42.110Z,100724.78
2022-10-22T08:22:09.869Z,100726.03
2022-10-22T08:24:36.280Z,100727.28
2022-10-22T08:27:02.756Z,100736.56
2022-10-22T08:29:29.172Z,100733.03
2022-10-22T08:31:55.566Z,100733.66
2022-10-22T08:34:21.964Z,100733.72
2022-10-22T08:36:48.444Z,100734.88
2022-10-22T08:39:14.961Z,100738.84
2022-10-22T08:41:47.606Z,100740.00
2022-10-22T08:44:32.802Z,100740.84
2022-10-22T08:47:30.849Z,100743.16
2022-10-22T08:49:59.938Z,100750.47
2022-10-22T08:52:26.507Z,100753.25
2022-10-22T08:54:56.014Z,100750.53
2022-10-22T08:57:56.593Z,100757.28
2022-10-22T09:00:55.431Z,100761.25
2022-10-22T09:03:51.035Z,100756.63
2022-10-22T09:06:22.809Z,100765.06
2022-10-22T09:08:50.186Z,100766.75
2022-10-22T09:11:30.509Z,100771.72
2022-10-22T09:13:58.486Z,100774.03
2022-10-22T09:16:38.539Z,100772.66
2022-10-22T09:19:32.923Z,100775.78
2022-10-22T09:22:14.267Z,100766.41
2022-10-22T09:24:52.463Z,100777.50
2022-10-22T09:27:25.859Z,100781.97
2022-10-22T09:29:52.287Z,100779.69
2022-10-22T09:32:19.517Z,100785.25
2022-10-22T09:34:49.766Z,100791.31
2022-10-22T09:37:19.050Z,100787.38
2022-10-22T09:39:50.841Z,100794.31
2022-10-22T09:42:20.034Z,100791.28
2022-10-22T09:44:55.366Z,100782.84
2022-10-22T09:47:43.013Z,100787.66
2022-10-22T09:50:44.196Z,100779.34
2022-10-22T09:53:23.283Z,100794.06
2022-10-22T09:56:01.035Z,100792.16
2022-10-22T09:58:28.389Z,100787.53
2022-10-22T10:00:58.353Z,100791.47
2022-10-22T10:03:28.056Z,100782.59
2022-10-22T10:06:01.391Z,100802.72
2022-10-22T10:08:31.479Z,100791.09
2022-10-22T10:11:29.113Z,100791.13
2022-10-22T10:14:21.601Z,100796.72
2022-10-22T10:17:39.754Z,100795.94
2022-10-22T10:20:29.494Z,100799.56
2022-10-22T10:23:04.756Z,100798.47
2022-10-22T10:26:09.467Z,100800.72
2022-10-22T10:28:57.227Z,100808.75
2022-10-22T10:31:41.787Z,100811.00
2022-10-22T10:34:20.511Z,100805.22
2022-10-22T10:37:34.448Z,100811.91
2022-10-22T10:40:03.604Z,100812.72
2022-10-22T10:42:51.755Z,100818.59
2022-10-22T10:45:41.588Z,100817.69
2022-10-22T10:48:08.225Z,100819.44
2022-10-22T10:50:50.213Z,100815.25
2022-10-22T10:53:48.821Z,100819.16
2022-10-22T10:56:53.008Z,100820.91
2022-10-22T10:59:37.287Z,100825.41
2022-10-22T11:02:29.740Z,100813.47
2022-10-22T11:05:14.331Z,100814.09
2022-10-22T11:07:47.944Z,100801.66
2022-10-22T11:10:46.405Z,100803.22
2022-10-22T11:13:24.820Z,100803.53
2022-10-22T11:16:22.293Z,100807.44
2022-10-22T11:18:58.287Z,100808.88
2022-10-22T11:21:42.736Z,100803.63
2022-10-22T11:24:35.665Z,100810.38
2022-10-22T11:27:14.933Z,100809.03
2022-10-22T11:29:46.359Z,100808.28
2022-10-22T11:32:20.157Z,100802.19
2022-10-22T11:35:08.993Z,100807.50
2022-10-22T11:37:39.068Z,100808.63
2022-10-22T11:40:18.423Z,100813.34
2022-10-22T11:42:49.673Z,100818.34
2022-10-22T11:45:15.982Z,100818.03
2022-10-22T11:48:14.882Z,100811.06
2022-10-22T11:50:41.217Z,100815.81
2022-10-22T11:53:13.593Z,100818.03
2022-10-22T11:55:45.396Z,100819.72
2022-10-22T11:58:30.496Z,100825.56
2022-10-22T12:01:02.675Z,100819.69
2022-10-22T12:03:31.886Z,100826.16
2022-10-22T12:06:15.308Z,100821.09
2022-10-22T12:08:45.961Z,100823.91
2022-10-22T12:11:12.302Z,100804.47
2022-10-22T12:14:03.821Z,100801.28
2022-10-22T12:16:54.641Z,100792.34
2022-10-22T12:19:22.031Z,100796.28
2022-10-22T12:21:53.224Z,100796.25
2022-10-22T12:24:23.057Z,100800.66
2022-10-22T12:26:52.435Z,100797.31
2022-10-22T12:29:23.730Z,100795.88
2022-10-22T12:31:50.348Z,100786.63
2022-10-22T12:34:21.375Z,100786.38
2022-10-22T12:36:50.396Z,100788.97
2022-10-22T12:39:20.593Z,100786.19
2022-10-22T12:41:47.154Z,100785.13
2022-10-22T12:44:17.973Z,100781.22
2022-10-22T12:46:48.026Z,100783.44
2022-10-22T12:49:21.724Z,100777.88
2022-10-22T12:51:49.147Z,100773.91
2022-10-22T12:54:35.250Z,100775.59
2022-10-22T12:57:02.404Z,100773.91
2022-10-22T12:59:38.625Z,100765.25
2022-10-22T13:02:18.918Z,100782.59
2022-10-22T13:05:24.865Z,100771.38
2022-10-22T13:08:03.266Z,100789.31
2022-10-22T13:10:56.219Z,100772.78
2022-10-22T13:14:01.549Z,100772.19
2022-10-22T13:16:30.035Z,100773.31
2022-10-22T13:18:56.512Z,100777.22
2022-10-22T13:21:39.228Z,100776.09
2022-10-22T13:24:24.727Z,100770.25
2022-10-22T13:26:53.741Z,100757.97
2022-10-22T13:29:22.634Z,100761.63
2022-10-22T13:31:52.082Z,100759.94
2022-10-22T13:34:22.300Z,100770.00
2022-10-22T13:36:49.500Z,100759.66
2022-10-22T13:39:20.934Z,100774.44
2022-10-22T13:41:50.172Z,100764.41
2022-10-22T13:44:18.434Z,100766.38
2022-10-22T13:46:45.467Z,100760.78
2022-10-22T13:49:17.891Z,100756.00
2022-10-22T13:51:44.695Z,100754.91
2022-10-22T13:54:16.910Z,100758.25
2022-10-22T13:56:43.276Z,100758.56
2022-10-22T13:59:10.427Z,100751.53
2022-10-22T14:01:37.679Z,100757.69
2022-10-22T14:04:07.596Z,100753.22
2022-10-22T14:09:11.197Z,100750.97
2022-10-22T14:11:37.741Z,100752.09
2022-10-22T14:14:08.588Z,100757.69
2022-10-22T14:16:37.159Z,100756.56
2022-10-22T14:19:04.944Z,100756.03
2022-10-22T14:21:35.985Z,100754.88
2022-10-22T14:24:02.434Z,100759.06
2022-10-22T14:26:33.079Z,100752.66
2022-10-22T14:29:09.909Z,100757.13
2022-10-22T14:34:13.541Z,100761.03
2022-10-22T14:36:40.188Z,100766.06
2022-10-22T14:39:06.727Z,100766.91
2022-10-22T14:41:33.494Z,100768.03
2022-10-22T14:44:00.071Z,100757.69
2022-10-22T14:46:26.650Z,100763.56
2022-10-22T14:48:53.186Z,100763.56
2022-10-22T14:51:21.563Z,100757.69
2022-10-22T14:53:48.622Z,100764.13
2022-10-22T14:56:17.935Z,100764.41
2022-10-22T14:58:45.710Z,100757.69
2022-10-22T15:01:12.584Z,100760.97
2022-10-22T15:03:39.058Z,100766.25
2022-10-22T15:06:05.942Z,100760.97
2022-10-22T15:08:32.426Z,100764.03
2022-10-22T15:11:00.634Z,100766.00
2022-10-22T15:13:28.977Z,100763.75
2022-10-22T15:15:56.224Z,100774.34
2022-10-22T15:18:23.369Z,100760.91
2022-10-22T15:21:01.245Z,100757.44
2022-10-22T15:23:28.294Z,100761.88
2022-10-22T15:25:55.387Z,100761.28
2022-10-22T15:28:22.057Z,100764.59
2022-10-22T15:31:00.033Z,100760.97
2022-10-22T15:33:28.467Z,100773.06
2022-10-22T15:35:55.832Z,100766.91
2022-10-22T15:38:26.569Z,100772.56
2022-10-22T15:41:05.511Z,100775.44
2022-10-22T15:43:33.063Z,100781.09
2022-10-22T15:46:18.435Z,100785.06
2022-10-22T15:48:45.831Z,100783.13
2022-10-22T15:51:18.038Z,100791.53
2022-10-22T15:53:50.520Z,100785.69
2022-10-22T15:56:16.932Z,100786.50
2022-10-22T15:58:43.357Z,100780.91
2022-10-22T16:01:12.978Z,100785.66
2022-10-22T16:03:40.354Z,100793.19
2022-10-22T16:06:08.164Z,100783.38
2022-10-22T16:08:35.263Z,100786.69
2022-10-22T16:11:01.685Z,100785.47
2022-10-22T16:13:28.113Z,100794.63
2022-10-22T16:15:54.510Z,100805.41
2022-10-22T16:18:21.492Z,100803.63
2022-10-22T16:20:47.918Z,100811.31
2022-10-22T16:23:18.459Z,100808.41
2022-10-22T16:25:45.983Z,100803.78
2022-10-22T16:28:12.737Z,100807.88
2022-10-22T16:30:39.392Z,100806.91
2022-10-22T16:33:07.336Z,100817.38
2022-10-22T16:35:33.993Z,100818.91
2022-10-22T16:38:00.431Z,100823.53
2022-10-22T16:40:27.063Z,100822.53
2022-10-22T16:42:53.453Z,100833.28
2022-10-22T16:45:19.815Z,100827.31
2022-10-22T16:47:46.971Z,100829.75
2022-10-22T16:50:13.509Z,100837.16
2022-10-22T16:52:39.914Z,100836.50
2022-10-22T16:55:06.637Z,100840.59
2022-10-22T16:57:33.935Z,100849.13
2022-10-22T17:00:00.399Z,100854.59
2022-10-22T17:02:26.769Z,100849.00
2022-10-22T17:04:53.170Z,100854.47
2022-10-22T17:07:19.590Z,100853.28
2022-10-22T17:09:45.948Z,100860.97
2022-10-22T17:12:12.470Z,100852.31
2022-10-22T17:14:39.026Z,100859.75
2022-10-22T17:17:05.421Z,100854.66
2022-10-22T17:19:31.940Z,100868.50
2022-10-22T17:21:58.312Z,100865.59
2022-10-22T17:24:24.702Z,100868.31
2022-10-22T17:26:51.203Z,100860.13
2022-10-22T17:29:18.027Z,100861.72
2022-10-22T17:31:44.446Z,100861.88
2022-10-22T17:34:16.145Z,100870.38
2022-10-22T17:36:43.216Z,100873.34
2022-10-22T17:39:15.950Z,100877.09
2022-10-22T17:41:42.382Z,100877.53
2022-10-22T17:44:09.205Z,100882.75
2022-10-22T17:46:36.055Z,100885.75
2022-10-22T17:49:05.098Z,100884.56
2022-10-22T17:51:31.771Z,100882.28
2022-10-22T17:53:58.641Z,100886.88
2022-10-22T17:56:27.752Z,100884.63
2022-10-22T17:58:54.565Z,100882.56
2022-10-22T18:01:24.851Z,100886.94
2022-10-22T18:03:52.784Z,100887.69
2022-10-22T18:06:19.721Z,100893.75
2022-10-22T18:08:46.256Z,100895.06
2022-10-22T18:11:16.447Z,100888.66
2022-10-22T18:13:42.891Z,100891.34
2022-10-22T18:16:09.360Z,100901.84
2022-10-22T18:18:36.739Z,100895.72
2022-10-22T18:21:03.815Z,100890.88
2022-10-22T18:23:30.225Z,100889.66
2022-10-22T18:25:56.647Z,100888.47
2022-10-22T18:28:23.181Z,100898.13
2022-10-22T18:30:50.791Z,100896.94
2022-10-22T18:33:18.879Z,100890.19
2022-10-22T18:35:48.277Z,100889.81
2022-10-22T18:38:14.696Z,100894.44
2022-10-22T18:40:48.545Z,100894.06
2022-10-22T18:43:16.201Z,100897.31
2022-10-22T18:45:43.925Z,100896.72
2022-10-22T18:48:10.953Z,100894.44
2022-10-22T18:50:37.445Z,100891.06
2022-10-22T18:53:03.997Z,100891.53
2022-10-22T18:55:30.839Z,100894.81
2022-10-22T18:57:57.221Z,100889.50
2022-10-22T19:00:26.368Z,100886.13
2022-10-22T19:02:54.025Z,100891.31
2022-10-22T19:05:20.691Z,100892.41
2022-10-22T19:07:48.671Z,100885.41
2022-10-22T19:10:15.130Z,100886.50
2022-10-22T19:12:41.594Z,100873.97
2022-10-22T19:15:08.406Z,100878.31
2022-10-22T19:17:35.070Z,100877.94
2022-10-22T19:20:01.591Z,100880.38
2022-10-22T19:22:28.049Z,100878.09
2022-10-22T19:24:54.551Z,100886.84
2022-10-22T19:27:20.990Z,100887.97
2022-10-22T19:29:49.381Z,100882.63
2022-10-22T19:32:16.746Z,100880.94
2022-10-22T19:34:43.132Z,100884.19
2022-10-22T19:37:09.504Z,100888.31
2022-10-22T19:39:36.024Z,100897.09
2022-10-22T19:42:04.141Z,100898.19
2022-10-22T19:44:31.077Z,100894.78
2022-10-22T19:46:57.447Z,100894.69
2022-10-22T19:49:24.342Z,100892.41
2022-10-22T19:51:50.790Z,100891.19
2022-10-22T19:54:19.545Z,100885.03
2022-10-22T19:56:46.675Z,100891.66
2022-10-22T19:59:15.486Z,100893.81
2022-10-22T20:01:42.282Z,100893.22
2022-10-22T20:04:13.882Z,100888.97
2022-10-22T20:06:40.309Z,100895.59
2022-10-22T20:09:06.702Z,100900.28
2022-10-22T20:11:33.153Z,100899.19
2022-10-22T20:13:59.549Z,100899.19
2022-10-22T20:16:29.550Z,100901.75
2022-10-22T20:19:00.539Z,100897.28
2022-10-22T20:21:27.439Z,100897.75
2022-10-22T20:23:56.514Z,100903.53
2022-10-22T20:26:24.423Z,100910.38
2022-10-22T20:28:51.909Z,100910.63
2022-10-22T20:31:20.572Z,100902.31
2022-10-22T20:33:47.998Z,100915.06
2022-10-22T20:36:17.600Z,100908.69
2022-10-22T20:38:45.360Z,100900.63
2022-10-22T20:41:14.114Z,100902.53
2022-10-22T20:43:43.561Z,100902.78
2022-10-22T20:46:16.793Z,100895.56
2022-10-22T20:48:43.492Z,100883.63
2022-10-22T20:51:09.965Z,100884.47
2022-10-22T20:53:36.380Z,100886.63
2022-10-22T20:56:02.923Z,100886.88
2022-10-22T20:58:30.733Z,100888.81
2022-10-22T21:00:58.995Z,100890.34
2022-10-22T21:03:25.417Z,100879.28
2022-10-22T21:05:51.823Z,100887.59
2022-10-22T21:08:18.259Z,100893.13
2022-10-22T21:10:49.094Z,100902.50
2022-10-22T21:13:16.822Z,100892.53
2022-10-22T21:15:43.246Z,100890.00
2022-10-22T21:18:09.698Z,100897.06
2022-10-22T21:20:36.157Z,100892.00
2022-10-22T21:23:02.545Z,100906.06
2022-10-22T21:25:28.987Z,100897.19
2022-10-22T21:27:55.448Z,100899.31
2022-10-22T21:30:21.855Z,100910.88
2022-10-22T21:32:48.242Z,100907.97
2022-10-22T21:35:14.742Z,100913.97
2022-10-22T21:37:41.428Z,100919.97
2022-10-22T21:40:08.643Z,100915.97
2022-10-22T21:42:35.043Z,100915.38
2022-10-22T21:45:01.587Z,100913.09
2022-10-22T21:47:28.150Z,100911.88
2022-10-22T21:49:54.761Z,100915.09
2022-10-22T21:52:21.242Z,100911.94
2022-10-22T21:54:47.649Z,100914.31
2022-10-22T21:57:14.017Z,100907.59
2022-10-22T21:59:40.526Z,100897.81
2022-10-22T22:02:07.062Z,100906.78
2022-10-22T22:04:33.773Z,100899.59
2022-10-22T22:07:00.241Z,100902.59
2022-10-22T22:09:26.705Z,100902.38
2022-10-22T22:11:53.075Z,100903.44
2022-10-22T22:14:19.488Z,100899.59
2022-10-22T22:16:45.898Z,100884.91
2022-10-22T22:19:12.458Z,100886.84
2022-10-22T22:21:40.363Z,100888.53
2022-10-22T22:24:07.748Z,100884.28
2022-10-22T22:26:34.426Z,100887.91
2022-10-22T22:29:01.188Z,100877.94
2022-10-22T22:31:33.170Z,100881.78
2022-10-22T22:34:08.537Z,100883.91
2022-10-22T22:36:40.481Z,100885.44
2022-10-22T22:39:08.959Z,100880.63
2022-10-22T22:41:35.413Z,100879.41
2022-10-22T22:44:02.005Z,100872.41
2022-10-22T22:46:28.503Z,100877.34
2022-10-22T22:48:55.015Z,100872.88
2022-10-22T22:51:21.443Z,100870.09
2022-10-22T22:53:48.005Z,100868.44
2022-10-22T22:56:25.840Z,100866.97
2022-10-22T22:58:52.239Z,100871.41
2022-10-22T23:01:26.653Z,100866.38
2022-10-22T23:04:16.336Z,100867.66
2022-10-22T23:06:42.946Z,100867.91
2022-10-22T23:09:11.584Z,100872.78
2022-10-22T23:11:39.541Z,100868.56
2022-10-22T23:14:07.339Z,100859.66
2022-10-22T23:16:36.710Z,100860.50
2022-10-22T23:19:04.564Z,100861.78
2022-10-22T23:21:36.813Z,100863.94
2022-10-22T23:24:07.365Z,100869.09
2022-10-22T23:26:36.951Z,100861.03
2022-10-22T23:29:14.006Z,100863.66
2022-10-22T23:31:41.122Z,100866.25
2022-10-22T23:34:08.297Z,100864.53
2022-10-22T23:36:36.814Z,100866.72
2022-10-22T23:39:05.510Z,100865.47
2022-10-22T23:41:32.040Z,100870.81
2022-10-22T23:43:58.854Z,100862.78
2022-10-22T23:46:25.357Z,100873.19
2022-10-22T23:48:53.723Z,100867.28
2022-10-22T23:51:21.186Z,100876.63
2022-10-22T23:53:53.074Z,100863.69
2022-10-22T23:56:19.548Z,100862.22
2022-10-22T23:58:51.439Z,100858.41
